createdAt,value
2022-11-02T00:01:14.964Z,1007.2
2022-11-02T00:03:25.247Z,1007.2
2022-11-02T00:07:04.630Z,1007.1
2022-11-02T00:11:04.613Z,1007.1
2022-11-02T00:13:14.899Z,1007.1
2022-11-02T00:19:04.657Z,1007.2
2022-11-02T00:23:05.886Z,1007.1
2022-11-02T00:25:14.897Z,1007.1
2022-11-02T00:28:04.600Z,1007
2022-11-02T00:30:26.899Z,1007
2022-11-02T00:33:14.899Z,1007
2022-11-02T00:36:04.658Z,1007.1
2022-11-02T00:39:04.658Z,1007
2022-11-02T00:42:04.632Z,1007
2022-11-02T00:44:04.657Z,1007
2022-11-02T00:47:04.595Z,1007
2022-11-02T00:49:14.900Z,1007
2022-11-02T00:52:04.602Z,1007
2022-11-02T00:55:04.677Z,1007.1
2022-11-02T00:57:04.854Z,1007.1
2022-11-02T01:00:14.934Z,1007.1
2022-11-02T01:02:15.164Z,1007
2022-11-02T01:05:04.629Z,1007
2022-11-02T01:07:04.694Z,1007
2022-11-02T01:11:04.620Z,1007
2022-11-02T01:13:14.887Z,1007.1
2022-11-02T01:16:04.640Z,1007
2022-11-02T01:18:25.179Z,1007
2022-11-02T01:21:14.899Z,1007
2022-11-02T01:24:04.632Z,1007
2022-11-02T01:26:25.179Z,1007
2022-11-02T01:29:14.921Z,1006.9
2022-11-02T01:32:04.641Z,1007
2022-11-02T01:34:25.198Z,1007
2022-11-02T01:37:14.906Z,1006.9
2022-11-02T01:40:04.705Z,1006.9
2022-11-02T01:42:25.192Z,1006.9
2022-11-02T01:44:28.616Z,1007
2022-11-02T01:47:14.913Z,1006.9
2022-11-02T01:50:04.638Z,1006.9
2022-11-02T01:52:04.649Z,1006.8
2022-11-02T01:55:04.671Z,1006.8
2022-11-02T01:58:04.974Z,1006.7
2022-11-02T02:00:04.633Z,1006.8
2022-11-02T02:03:04.645Z,1006.7
2022-11-02T02:05:04.646Z,1006.8
2022-11-02T02:08:04.908Z,1006.7
2022-11-02T02:10:04.638Z,1006.6
2022-11-02T02:13:04.667Z,1006.6
2022-11-02T02:16:04.664Z,1006.6
2022-11-02T02:19:04.635Z,1006.6
2022-11-02T02:22:04.632Z,1006.6
2022-11-02T02:24:04.643Z,1006.6
2022-11-02T02:26:04.643Z,1006.6
2022-11-02T02:29:04.654Z,1006.6
2022-11-02T02:32:04.639Z,1006.6
2022-11-02T02:35:04.638Z,1006.6
2022-11-02T02:37:04.648Z,1006.6
2022-11-02T02:40:04.680Z,1006.6
2022-11-02T02:42:04.705Z,1006.6
2022-11-02T02:45:04.669Z,1006.5
2022-11-02T02:47:04.646Z,1006.5
2022-11-02T02:49:04.642Z,1006.5
2022-11-02T02:51:04.718Z,1006.5
2022-11-02T02:54:04.677Z,1006.5
2022-11-02T02:57:04.661Z,1006.5
2022-11-02T02:59:04.655Z,1006.5
2022-11-02T03:01:04.695Z,1006.5
2022-11-02T03:04:04.690Z,1006.5
2022-11-02T03:07:04.649Z,1006.5
2022-11-02T03:09:04.692Z,1006.5
2022-11-02T03:12:04.659Z,1006.5
2022-11-02T03:14:04.690Z,1006.5
2022-11-02T03:17:04.640Z,1006.5
2022-11-02T03:19:04.652Z,1006.5
2022-11-02T03:22:04.614Z,1006.5
2022-11-02T03:24:04.656Z,1006.4
2022-11-02T03:26:04.637Z,1006.4
2022-11-02T03:29:04.664Z,1006.5
2022-11-02T03:32:04.656Z,1006.5
2022-11-02T03:35:04.709Z,1006.4
2022-11-02T03:38:04.820Z,1006.4
2022-11-02T03:40:04.665Z,1006.4
2022-11-02T03:43:04.657Z,1006.5
2022-11-02T03:46:04.675Z,1006.5
2022-11-02T03:48:04.816Z,1006.5
2022-11-02T03:50:04.652Z,1006.5
2022-11-02T03:53:04.652Z,1006.6
2022-11-02T03:55:04.698Z,1006.7
2022-11-02T03:58:04.784Z,1006.8
2022-11-02T04:00:04.649Z,1006.8
2022-11-02T04:03:04.661Z,1006.7
2022-11-02T04:05:04.679Z,1006.8
2022-11-02T04:08:04.793Z,1006.7
2022-11-02T04:10:04.671Z,1006.8
2022-11-02T04:13:04.656Z,1006.9
2022-11-02T04:16:04.656Z,1007
2022-11-02T04:18:04.891Z,1007
2022-11-02T04:20:04.694Z,1007
2022-11-02T04:23:04.681Z,1007.1
2022-11-02T04:25:04.678Z,1007.2
2022-11-02T04:28:04.944Z,1007.2
2022-11-02T04:31:04.696Z,1007.3
2022-11-02T04:34:04.686Z,1007.2
2022-11-02T04:36:04.709Z,1007.2
2022-11-02T04:39:11.363Z,1007.1
2022-11-02T04:42:04.686Z,1007.2
2022-11-02T04:45:04.665Z,1007.2
2022-11-02T04:47:04.665Z,1007.3
2022-11-02T04:50:04.789Z,1007.3
2022-11-02T04:53:04.685Z,1007.3
2022-11-02T04:55:04.662Z,1007.3
2022-11-02T04:58:04.885Z,1007.3
2022-11-02T05:00:04.775Z,1007.4
2022-11-02T05:03:06.790Z,1007.4
2022-11-02T05:05:04.680Z,1007.4
2022-11-02T05:08:05.012Z,1007.5
2022-11-02T05:10:04.673Z,1007.5
2022-11-02T05:12:04.657Z,1007.5
2022-11-02T05:15:04.683Z,1007.6
2022-11-02T05:18:04.890Z,1007.6
2022-11-02T05:21:04.662Z,1007.6
2022-11-02T05:24:04.632Z,1007.6
2022-11-02T05:26:04.673Z,1007.5
2022-11-02T05:29:04.640Z,1007.7
2022-11-02T05:31:04.648Z,1007.6
2022-11-02T05:33:14.942Z,1007.6
2022-11-02T05:36:04.652Z,1007.6
2022-11-02T05:38:04.658Z,1007.6
2022-11-02T05:41:04.674Z,1007.6
2022-11-02T05:43:04.998Z,1007.7
2022-11-02T05:46:04.690Z,1007.7
2022-11-02T05:49:04.665Z,1007.7
2022-11-02T05:52:04.686Z,1007.8
2022-11-02T05:54:04.679Z,1007.8
2022-11-02T05:57:04.690Z,1007.9
2022-11-02T06:00:04.733Z,1007.9
2022-11-02T06:02:04.730Z,1007.8
2022-11-02T06:05:04.769Z,1007.9
2022-11-02T06:08:04.650Z,1007.9
2022-11-02T06:10:04.681Z,1008
2022-11-02T06:12:04.643Z,1008
2022-11-02T06:15:04.693Z,1008
2022-11-02T06:18:05.729Z,1008.1
2022-11-02T06:21:04.694Z,1008.1
2022-11-02T06:24:04.689Z,1008.1
2022-11-02T06:27:04.685Z,1008.2
2022-11-02T06:29:04.695Z,1008.1
2022-11-02T06:32:04.692Z,1008.3
2022-11-02T06:34:04.701Z,1008.2
2022-11-02T06:36:04.669Z,1008.3
2022-11-02T06:39:04.733Z,1008.3
2022-11-02T06:42:04.711Z,1008.3
2022-11-02T06:44:04.710Z,1008.4
2022-11-02T06:47:04.673Z,1008.4
2022-11-02T06:49:04.743Z,1008.5
2022-11-02T06:52:04.692Z,1008.5
2022-11-02T06:55:04.690Z,1008.7
2022-11-02T06:59:04.696Z,1008.7
2022-11-02T07:01:15.191Z,1008.6
2022-11-02T07:03:14.958Z,1008.8
2022-11-02T07:06:07.389Z,1008.8
2022-11-02T07:08:04.687Z,1008.9
2022-11-02T07:11:04.745Z,1008.9
2022-11-02T07:14:04.689Z,1009
2022-11-02T07:17:04.692Z,1009
2022-11-02T07:20:04.699Z,1009
2022-11-02T07:23:05.055Z,1009.1
2022-11-02T07:27:04.679Z,1009.1
2022-11-02T07:29:04.689Z,1009.2
2022-11-02T07:32:04.696Z,1009.2
2022-11-02T07:35:04.675Z,1009.3
2022-11-02T07:38:04.697Z,1009.3
2022-11-02T07:40:04.777Z,1009.4
2022-11-02T07:43:04.918Z,1009.3
2022-11-02T07:45:04.688Z,1009.3
2022-11-02T07:48:04.683Z,1009.2
2022-11-02T07:50:04.705Z,1009.3
2022-11-02T07:52:14.981Z,1009.2
2022-11-02T07:55:04.694Z,1009.3
2022-11-02T07:57:04.704Z,1009.3
2022-11-02T08:00:04.713Z,1009.4
2022-11-02T08:03:15.385Z,1009.4
2022-11-02T08:07:04.710Z,1009.5
2022-11-02T08:10:04.744Z,1009.6
2022-11-02T08:13:04.678Z,1009.6
2022-11-02T08:15:07.321Z,1009.7
2022-11-02T08:18:05.048Z,1009.7
2022-11-02T08:20:04.710Z,1009.6
2022-11-02T08:23:04.742Z,1009.6
2022-11-02T08:26:04.700Z,1009.6
2022-11-02T08:28:05.009Z,1009.6
2022-11-02T08:30:25.187Z,1009.6
2022-11-02T08:34:04.727Z,1009.7
2022-11-02T08:38:04.906Z,1009.7
2022-11-02T08:40:25.364Z,1009.7
2022-11-02T08:43:15.006Z,1009.7
2022-11-02T08:46:15.959Z,1009.7
2022-11-02T08:48:04.899Z,1009.8
2022-11-02T08:50:04.684Z,1009.9
2022-11-02T08:52:15.010Z,1009.9
2022-11-02T08:55:04.702Z,1009.8
2022-11-02T08:57:04.730Z,1009.9
2022-11-02T09:00:04.713Z,1009.8
2022-11-02T09:02:15.092Z,1009.8
2022-11-02T09:05:04.771Z,1009.9
2022-11-02T09:08:04.967Z,1009.8
2022-11-02T09:11:04.721Z,1009.8
2022-11-02T09:13:14.959Z,1009.8
2022-11-02T09:16:04.758Z,1009.8
2022-11-02T09:19:04.729Z,1009.8
2022-11-02T09:21:04.731Z,1009.8
2022-11-02T09:24:04.720Z,1009.8
2022-11-02T09:26:04.748Z,1009.9
2022-11-02T09:29:04.703Z,1009.8
2022-11-02T09:32:04.712Z,1009.9
2022-11-02T09:35:04.728Z,1010
2022-11-02T09:38:15.050Z,1009.9
2022-11-02T09:41:15.020Z,1009.9
2022-11-02T09:43:29.533Z,1009.9
2022-11-02T09:46:15.027Z,1009.8
2022-11-02T09:48:18.814Z,1009.8
2022-11-02T09:51:04.742Z,1009.9
2022-11-02T09:54:04.731Z,1009.9
2022-11-02T09:56:25.269Z,1010
2022-11-02T09:58:25.276Z,1009.9
2022-11-02T10:01:04.734Z,1010
2022-11-02T10:03:04.783Z,1010
2022-11-02T10:06:04.713Z,1010
2022-11-02T10:08:14.996Z,1010.1
2022-11-02T10:11:08.014Z,1010
2022-11-02T10:13:37.271Z,1010.1
2022-11-02T10:16:14.985Z,1010
2022-11-02T10:20:04.727Z,1010
2022-11-02T10:22:04.721Z,1010
2022-11-02T10:24:04.758Z,1010.1
2022-11-02T10:26:15.009Z,1010.1
2022-11-02T10:30:04.701Z,1010.1
2022-11-02T10:32:04.781Z,1010.1
2022-11-02T10:35:33.814Z,1010
2022-11-02T10:37:15.008Z,1010
2022-11-02T10:40:04.750Z,1009.9
2022-11-02T10:43:04.714Z,1009.9
2022-11-02T10:45:15.019Z,1009.9
2022-11-02T10:48:04.976Z,1010
2022-11-02T10:51:04.724Z,1010.1
2022-11-02T10:53:27.117Z,1010.1
2022-11-02T10:55:04.761Z,1009.9
2022-11-02T10:57:14.999Z,1009.9
2022-11-02T10:59:15.033Z,1009.8
2022-11-02T11:02:04.863Z,1009.9
2022-11-02T11:06:04.728Z,1009.9
2022-11-02T11:08:15.001Z,1009.9
2022-11-02T11:10:25.269Z,1009.9
2022-11-02T11:13:04.881Z,1009.9
2022-11-02T11:21:04.718Z,1009.9
2022-11-02T11:24:04.747Z,1009.7
2022-11-02T11:26:04.757Z,1009.7
2022-11-02T11:29:04.729Z,1009.7
2022-11-02T11:32:04.723Z,1009.7
2022-11-02T11:34:04.731Z,1009.6
2022-11-02T11:36:15.035Z,1009.6
2022-11-02T11:40:04.772Z,1009.6
2022-11-02T11:43:04.767Z,1009.5
2022-11-02T11:45:04.772Z,1009.7
2022-11-02T11:48:05.022Z,1009.7
2022-11-02T11:51:04.742Z,1009.6
2022-11-02T11:54:04.753Z,1009.7
2022-11-02T11:57:04.749Z,1009.5
2022-11-02T12:00:04.788Z,1009.4
2022-11-02T12:02:04.935Z,1009.4
2022-11-02T12:05:04.815Z,1009.4
2022-11-02T12:08:04.757Z,1009.4
2022-11-02T12:10:04.788Z,1009.4
2022-11-02T12:13:04.988Z,1009.4
2022-11-02T12:16:04.744Z,1009.6
2022-11-02T12:18:05.051Z,1009.5
2022-11-02T12:21:04.769Z,1009.5
2022-11-02T12:25:04.747Z,1009.4
2022-11-02T12:28:04.761Z,1009.5
2022-11-02T12:30:15.110Z,1009.3
2022-11-02T12:32:25.325Z,1009.3
2022-11-02T12:38:05.090Z,1009.2
2022-11-02T12:40:04.781Z,1009.1
2022-11-02T12:42:15.050Z,1009.1
2022-11-02T12:45:04.780Z,1009
2022-11-02T12:47:04.769Z,1009.1
2022-11-02T12:49:04.779Z,1009.1
2022-11-02T12:51:04.794Z,1009.1
2022-11-02T12:53:15.051Z,1009
2022-11-02T12:56:04.754Z,1009
2022-11-02T12:59:04.763Z,1009.1
2022-11-02T13:01:07.040Z,1009.1
2022-11-02T13:03:05.128Z,1009.1
2022-11-02T13:05:04.757Z,1009
2022-11-02T13:08:15.008Z,1009
2022-11-02T13:10:15.028Z,1008.9
2022-11-02T13:13:05.218Z,1008.9
2022-11-02T13:16:04.766Z,1008.9
2022-11-02T13:19:04.759Z,1008.9
2022-11-02T13:21:15.058Z,1008.8
2022-11-02T13:23:25.434Z,1008.8
2022-11-02T13:28:13.687Z,1008.9
2022-11-02T13:31:13.378Z,1008.9
2022-11-02T13:34:13.125Z,1008.8
2022-11-02T13:37:13.108Z,1008.8
2022-11-02T13:41:13.115Z,1008.8
2022-11-02T13:43:45.710Z,1008.8
2022-11-02T13:46:13.905Z,1008.7
2022-11-02T13:48:44.183Z,1008.7
2022-11-02T13:52:14.868Z,1008.7
2022-11-02T13:54:13.099Z,1008.6
2022-11-02T13:56:13.092Z,1008.7
2022-11-02T13:58:13.142Z,1008.7
2022-11-02T14:00:45.703Z,1008.7
2022-11-02T14:03:16.022Z,1008.7
2022-11-02T14:05:46.227Z,1008.7
2022-11-02T14:08:13.094Z,1008.7
2022-11-02T14:11:13.313Z,1008.7
2022-11-02T14:14:16.333Z,1008.7
2022-11-02T14:16:26.097Z,1008.6
2022-11-02T14:18:56.220Z,1008.6
2022-11-02T14:22:13.076Z,1008.7
2022-11-02T14:24:31.625Z,1008.7
2022-11-02T14:27:45.720Z,1008.6
2022-11-02T14:30:13.959Z,1008.6
2022-11-02T14:33:13.091Z,1008.6
2022-11-02T14:36:57.460Z,1008.5
2022-11-02T14:43:28.525Z,1008.5
2022-11-02T14:46:33.742Z,1008.6
2022-11-02T14:49:39.057Z,1008.5
2022-11-02T14:51:50.791Z,1008.5
2022-11-02T14:54:00.438Z,1008.5
2022-11-02T14:57:26.256Z,1008.4
2022-11-02T14:59:38.410Z,1008.4
2022-11-02T15:01:49.715Z,1008.4
2022-11-02T15:04:17.928Z,1008.5
2022-11-02T15:08:13.120Z,1008.5
2022-11-02T15:10:45.760Z,1008.5
2022-11-02T15:13:17.212Z,1008.4
2022-11-02T15:15:46.228Z,1008.3
2022-11-02T15:18:13.254Z,1008.3
2022-11-02T15:21:13.204Z,1008.3
2022-11-02T15:24:15.488Z,1008.3
2022-11-02T15:26:13.193Z,1008.3
2022-11-02T15:29:13.161Z,1008.3
2022-11-02T15:31:31.677Z,1008.4
2022-11-02T15:33:59.872Z,1008.3
2022-11-02T15:36:28.075Z,1008.2
2022-11-02T15:39:33.355Z,1008.3
2022-11-02T15:42:38.551Z,1008.3
2022-11-02T15:44:50.293Z,1008.4
2022-11-02T15:48:13.096Z,1008.4
2022-11-02T15:51:31.666Z,1008.3
2022-11-02T15:53:59.832Z,1008.3
2022-11-02T15:56:09.554Z,1008.3
2022-11-02T15:58:13.144Z,1008.2
2022-11-02T16:01:13.349Z,1008.2
2022-11-02T16:03:13.113Z,1008.2
2022-11-02T16:05:31.828Z,1008.2
2022-11-02T16:08:18.383Z,1008.2
2022-11-02T16:10:28.163Z,1008.2
2022-11-02T16:14:13.131Z,1008.1
2022-11-02T16:16:13.225Z,1008.1
2022-11-02T16:18:45.767Z,1008.1
2022-11-02T16:21:13.977Z,1008.1
2022-11-02T16:24:02.774Z,1008.1
2022-11-02T16:26:14.503Z,1008.1
2022-11-02T16:29:13.127Z,1008.1
2022-11-02T16:32:13.143Z,1008.1
2022-11-02T16:34:13.127Z,1008
2022-11-02T16:37:13.143Z,1008.1
2022-11-02T16:40:13.113Z,1008.1
2022-11-02T16:42:13.127Z,1008.1
2022-11-02T16:45:13.136Z,1008
2022-11-02T16:47:13.160Z,1008.1
2022-11-02T16:50:13.167Z,1008.1
2022-11-02T16:53:13.128Z,1008
2022-11-02T16:56:13.123Z,1008
2022-11-02T16:58:13.118Z,1008
2022-11-02T17:00:13.148Z,1008
2022-11-02T17:02:13.285Z,1008
2022-11-02T17:07:18.458Z,1008
2022-11-02T17:09:28.092Z,1008
2022-11-02T17:11:39.813Z,1007.9
2022-11-02T17:14:13.144Z,1007.9
2022-11-02T17:16:13.178Z,1007.8
2022-11-02T17:18:45.798Z,1007.9
2022-11-02T17:21:13.992Z,1007.9
2022-11-02T17:23:44.210Z,1007.9
2022-11-02T17:26:13.477Z,1008
2022-11-02T17:29:13.221Z,1008
2022-11-02T17:33:13.561Z,1008
2022-11-02T17:36:13.204Z,1008
2022-11-02T17:38:13.183Z,1008
2022-11-02T17:41:13.172Z,1008.1
2022-11-02T17:43:13.178Z,1008.1
2022-11-02T17:45:13.176Z,1008.1
2022-11-02T17:47:13.190Z,1008.1
2022-11-02T17:50:13.259Z,1008.1
2022-11-02T17:53:13.162Z,1008.1
2022-11-02T17:55:13.174Z,1008.1
2022-11-02T17:58:13.181Z,1008
2022-11-02T18:01:13.472Z,1008.1
2022-11-02T18:04:13.180Z,1008.1
2022-11-02T18:07:13.176Z,1008
2022-11-02T18:09:13.913Z,1008
2022-11-02T18:11:28.159Z,1008
2022-11-02T18:15:13.255Z,1007.9
2022-11-02T18:17:13.170Z,1007.9
2022-11-02T18:20:13.329Z,1007.9
2022-11-02T18:23:13.204Z,1007.9
2022-11-02T18:25:13.647Z,1008
2022-11-02T18:27:13.212Z,1008
2022-11-02T18:30:13.167Z,1007.9
2022-11-02T18:32:13.207Z,1007.9
2022-11-02T18:34:13.230Z,1007.9
2022-11-02T18:37:13.131Z,1007.9
2022-11-02T18:39:13.250Z,1007.9
2022-11-02T18:42:13.168Z,1007.8
2022-11-02T18:44:23.173Z,1007.8
2022-11-02T18:47:13.185Z,1007.8
2022-11-02T18:50:13.168Z,1007.7
2022-11-02T18:54:13.188Z,1007.6
2022-11-02T18:56:45.890Z,1007.6
2022-11-02T18:59:14.060Z,1007.7
2022-11-02T19:01:45.456Z,1007.6
2022-11-02T19:05:13.203Z,1007.5
2022-11-02T19:07:15.262Z,1007.5
2022-11-02T19:09:13.209Z,1007.5
2022-11-02T19:11:45.819Z,1007.5
2022-11-02T19:14:14.088Z,1007.5
2022-11-02T19:16:23.701Z,1007.4
2022-11-02T19:19:13.180Z,1007.5
2022-11-02T19:21:13.183Z,1007.4
2022-11-02T19:23:13.201Z,1007.4
2022-11-02T19:26:13.291Z,1007.4
2022-11-02T19:28:13.205Z,1007.4
2022-11-02T19:31:13.198Z,1007.3
2022-11-02T19:33:13.235Z,1007.3
2022-11-02T19:36:13.390Z,1007.3
2022-11-02T19:39:13.200Z,1007.4
2022-11-02T19:42:13.204Z,1007.3
2022-11-02T19:44:13.179Z,1007.3
2022-11-02T19:46:13.299Z,1007.3
2022-11-02T19:49:13.419Z,1007.3
2022-11-02T19:52:13.211Z,1007.3
2022-11-02T19:54:18.833Z,1007.3
2022-11-02T19:57:13.195Z,1007.2
2022-11-02T20:00:13.198Z,1007.2
2022-11-02T20:02:13.228Z,1007.2
2022-11-02T20:05:13.195Z,1007.2
2022-11-02T20:08:13.256Z,1007.2
2022-11-02T20:11:13.227Z,1007.2
2022-11-02T20:14:13.183Z,1007.2
2022-11-02T20:16:13.212Z,1007.2
2022-11-02T20:18:19.305Z,1007.2
2022-11-02T20:21:13.227Z,1007.2
2022-11-02T20:24:13.219Z,1007.1
2022-11-02T20:27:13.174Z,1007.2
2022-11-02T20:29:13.913Z,1007.1
2022-11-02T20:33:13.219Z,1007.1
2022-11-02T20:36:13.220Z,1007.1
2022-11-02T20:39:13.251Z,1007.1
2022-11-02T20:42:13.200Z,1007.1
2022-11-02T20:44:13.356Z,1007.1
2022-11-02T20:46:36.264Z,1007.1
2022-11-02T20:49:19.864Z,1007
2022-11-02T20:52:13.213Z,1007
2022-11-02T20:55:13.169Z,1007
2022-11-02T20:58:13.166Z,1007
2022-11-02T21:00:13.160Z,1006.9
2022-11-02T21:02:13.329Z,1006.9
2022-11-02T21:04:19.600Z,1006.9
2022-11-02T21:07:13.197Z,1006.9
2022-11-02T21:09:13.188Z,1006.8
2022-11-02T21:12:13.154Z,1006.8
2022-11-02T21:14:13.168Z,1006.8
2022-11-02T21:17:13.177Z,1006.8
2022-11-02T21:20:28.812Z,1006.8
2022-11-02T21:23:13.159Z,1006.8
2022-11-02T21:25:13.341Z,1006.8
2022-11-02T21:27:14.197Z,1006.8
2022-11-02T21:30:31.785Z,1006.8
2022-11-02T21:32:31.741Z,1006.8
2022-11-02T21:35:01.982Z,1006.8
2022-11-02T21:37:13.301Z,1006.8
2022-11-02T21:40:13.215Z,1006.7
2022-11-02T21:42:31.881Z,1006.8
2022-11-02T21:44:59.934Z,1006.8
2022-11-02T21:48:21.661Z,1006.8
2022-11-02T21:50:33.358Z,1006.7
2022-11-02T21:53:13.185Z,1006.7
2022-11-02T21:56:13.192Z,1006.7
2022-11-02T21:58:13.251Z,1006.7
2022-11-02T22:01:13.294Z,1006.6
2022-11-02T22:03:13.265Z,1006.6
2022-11-02T22:05:13.206Z,1006.5
2022-11-02T22:08:13.266Z,1006.6
2022-11-02T22:10:13.214Z,1006.6
2022-11-02T22:12:13.205Z,1006.5
2022-11-02T22:15:13.199Z,1006.5
2022-11-02T22:17:16.760Z,1006.5
2022-11-02T22:19:13.319Z,1006.5
2022-11-02T22:22:13.199Z,1006.5
2022-11-02T22:24:13.540Z,1006.4
2022-11-02T22:27:13.192Z,1006.4
2022-11-02T22:30:13.213Z,1006.4
2022-11-02T22:33:13.209Z,1006.4
2022-11-02T22:36:13.174Z,1006.3
2022-11-02T22:38:13.182Z,1006.2
2022-11-02T22:41:13.180Z,1006.2
2022-11-02T22:43:13.203Z,1006.2
2022-11-02T22:45:13.519Z,1006.1
2022-11-02T22:48:13.223Z,1006
2022-11-02T22:51:13.170Z,1006
2022-11-02T22:55:13.641Z,1006.1
2022-11-02T22:58:13.318Z,1006
2022-11-02T23:01:13.338Z,1006
2022-11-02T23:03:13.275Z,1006
2022-11-02T23:06:13.325Z,1006
2022-11-02T23:09:13.188Z,1006
2022-11-02T23:12:13.222Z,1006
2022-11-02T23:15:13.180Z,1005.9
2022-11-02T23:17:13.191Z,1005.9
2022-11-02T23:19:13.206Z,1005.8
2022-11-02T23:22:13.220Z,1005.9
2022-11-02T23:25:13.178Z,1006
2022-11-02T23:27:45.420Z,1005.9
2022-11-02T23:30:13.234Z,1005.9
2022-11-02T23:32:13.201Z,1005.9
2022-11-02T23:34:13.239Z,1005.9
2022-11-02T23:37:13.383Z,1006
2022-11-02T23:39:13.246Z,1006
2022-11-02T23:41:13.245Z,1005.9
2022-11-02T23:44:13.331Z,1005.9
2022-11-02T23:46:23.227Z,1005.9
2022-11-02T23:49:13.699Z,1005.9
2022-11-02T23:51:13.192Z,1005.9
2022-11-02T23:54:13.289Z,1005.8
2022-11-02T23:57:13.203Z,1005.8
2022-11-02T23:59:45.916Z,1005.8
